sensor_id;sensor_type;location;lat;lon;timestamp;P1;durP1;ratioP1;P2;durP2;ratioP2
72478;SDS011;60658;52.246;5.258;2022-09-29T00:00:18;7.40;;;6.07;;
72478;SDS011;60658;52.246;5.258;2022-09-29T00:01:19;8.35;;;6.25;;
72478;SDS011;60658;52.246;5.258;2022-09-29T00:02:20;11.38;;;6.43;;
72478;SDS011;60658;52.246;5.258;2022-09-29T00:03:23;10.13;;;7.15;;
72478;SDS011;60658;52.246;5.258;2022-09-29T00:04:24;11.45;;;7.50;;
72478;SDS011;60658;52.246;5.258;2022-09-29T00:05:28;9.13;;;6.70;;
72478;SDS011;60658;52.246;5.258;2022-09-29T00:06:29;9.63;;;7.00;;
72478;SDS011;60658;52.246;5.258;2022-09-29T00:07:29;11.82;;;7.95;;
72478;SDS011;60658;52.246;5.258;2022-09-29T00:08:30;10.23;;;7.25;;
72478;SDS011;60658;52.246;5.258;2022-09-29T00:09:31;13.23;;;8.25;;
72478;SDS011;60658;52.246;5.258;2022-09-29T00:10:31;16.17;;;9.07;;
72478;SDS011;60658;52.246;5.258;2022-09-29T00:11:32;11.85;;;8.00;;
72478;SDS011;60658;52.246;5.258;2022-09-29T00:12:33;13.65;;;8.07;;
72478;SDS011;60658;52.246;5.258;2022-09-29T00:13:35;11.23;;;7.55;;
72478;SDS011;60658;52.246;5.258;2022-09-29T00:14:36;15.30;;;8.73;;
72478;SDS011;60658;52.246;5.258;2022-09-29T00:15:40;18.35;;;8.40;;
72478;SDS011;60658;52.246;5.258;2022-09-29T00:16:41;23.65;;;7.90;;
72478;SDS011;60658;52.246;5.258;2022-09-29T00:17:42;24.75;;;7.70;;
72478;SDS011;60658;52.246;5.258;2022-09-29T00:18:42;18.02;;;7.05;;
72478;SDS011;60658;52.246;5.258;2022-09-29T00:19:43;29.33;;;7.35;;
72478;SDS011;60658;52.246;5.258;2022-09-29T00:20:54;27.17;;;6.10;;
72478;SDS011;60658;52.246;5.258;2022-09-29T00:21:55;56.85;;;7.88;;
72478;SDS011;60658;52.246;5.258;2022-09-29T00:22:55;53.33;;;7.20;;
72478;SDS011;60658;52.246;5.258;2022-09-29T00:23:59;46.65;;;6.32;;
72478;SDS011;60658;52.246;5.258;2022-09-29T00:25:00;8.00;;;4.60;;
72478;SDS011;60658;52.246;5.258;2022-09-29T00:26:06;11.50;;;4.68;;
72478;SDS011;60658;52.246;5.258;2022-09-29T00:27:07;15.70;;;4.40;;
72478;SDS011;60658;52.246;5.258;2022-09-29T00:28:08;18.45;;;6.07;;
72478;SDS011;60658;52.246;5.258;2022-09-29T00:29:09;14.98;;;6.15;;
72478;SDS011;60658;52.246;5.258;2022-09-29T00:30:10;25.55;;;6.97;;
72478;SDS011;60658;52.246;5.258;2022-09-29T00:31:14;12.77;;;6.35;;
72478;SDS011;60658;52.246;5.258;2022-09-29T00:32:15;9.18;;;5.88;;
72478;SDS011;60658;52.246;5.258;2022-09-29T00:33:21;9.30;;;5.60;;
72478;SDS011;60658;52.246;5.258;2022-09-29T00:34:22;11.23;;;6.75;;
72478;SDS011;60658;52.246;5.258;2022-09-29T00:35:23;12.27;;;6.65;;
72478;SDS011;60658;52.246;5.258;2022-09-29T00:36:26;10.02;;;6.43;;
72478;SDS011;60658;52.246;5.258;2022-09-29T00:37:27;10.13;;;6.70;;
72478;SDS011;60658;52.246;5.258;2022-09-29T00:38:28;11.48;;;6.75;;
72478;SDS011;60658;52.246;5.258;2022-09-29T00:39:29;11.05;;;6.70;;
72478;SDS011;60658;52.246;5.258;2022-09-29T00:40:32;9.45;;;5.75;;
72478;SDS011;60658;52.246;5.258;2022-09-29T00:41:33;11.50;;;7.13;;
72478;SDS011;60658;52.246;5.258;2022-09-29T00:42:34;10.52;;;7.07;;
72478;SDS011;60658;52.246;5.258;2022-09-29T00:43:52;10.40;;;6.10;;
72478;SDS011;60658;52.246;5.258;2022-09-29T00:46:13;10.70;;;6.78;;
72478;SDS011;60658;52.246;5.258;2022-09-29T00:47:18;9.45;;;6.40;;
72478;SDS011;60658;52.246;5.258;2022-09-29T00:48:21;8.93;;;6.40;;
72478;SDS011;60658;52.246;5.258;2022-09-29T00:49:26;10.07;;;6.80;;
72478;SDS011;60658;52.246;5.258;2022-09-29T00:50:35;10.05;;;6.75;;
72478;SDS011;60658;52.246;5.258;2022-09-29T00:51:42;9.02;;;6.28;;
72478;SDS011;60658;52.246;5.258;2022-09-29T00:52:46;10.98;;;6.82;;
72478;SDS011;60658;52.246;5.258;2022-09-29T00:53:49;10.27;;;6.40;;
72478;SDS011;60658;52.246;5.258;2022-09-29T00:54:51;10.20;;;6.97;;
72478;SDS011;60658;52.246;5.258;2022-09-29T00:56:02;10.48;;;6.57;;
72478;SDS011;60658;52.246;5.258;2022-09-29T00:57:11;9.30;;;6.70;;
72478;SDS011;60658;52.246;5.258;2022-09-29T00:58:16;12.10;;;7.43;;
72478;SDS011;60658;52.246;5.258;2022-09-29T00:59:19;13.98;;;7.32;;
72478;SDS011;60658;52.246;5.258;2022-09-29T01:00:24;12.20;;;7.70;;
72478;SDS011;60658;52.246;5.258;2022-09-29T01:01:25;8.95;;;6.45;;
72478;SDS011;60658;52.246;5.258;2022-09-29T01:02:28;12.30;;;7.25;;
72478;SDS011;60658;52.246;5.258;2022-09-29T01:04:32;8.50;;;5.78;;
72478;SDS011;60658;52.246;5.258;2022-09-29T01:05:38;11.57;;;7.28;;
72478;SDS011;60658;52.246;5.258;2022-09-29T01:06:46;11.50;;;7.10;;
72478;SDS011;60658;52.246;5.258;2022-09-29T01:07:48;10.65;;;6.47;;
72478;SDS011;60658;52.246;5.258;2022-09-29T01:08:57;11.20;;;7.10;;
72478;SDS011;60658;52.246;5.258;2022-09-29T01:09:59;10.77;;;7.15;;
72478;SDS011;60658;52.246;5.258;2022-09-29T01:11:02;10.63;;;7.28;;
72478;SDS011;60658;52.246;5.258;2022-09-29T01:12:09;10.88;;;6.95;;
72478;SDS011;60658;52.246;5.258;2022-09-29T01:13:10;9.38;;;6.60;;
72478;SDS011;60658;52.246;5.258;2022-09-29T01:14:13;8.50;;;6.30;;
72478;SDS011;60658;52.246;5.258;2022-09-29T01:15:16;8.82;;;5.90;;
72478;SDS011;60658;52.246;5.258;2022-09-29T01:16:17;9.57;;;6.63;;
72478;SDS011;60658;52.246;5.258;2022-09-29T01:17:21;11.30;;;7.60;;
72478;SDS011;60658;52.246;5.258;2022-09-29T01:18:22;11.02;;;7.50;;
72478;SDS011;60658;52.246;5.258;2022-09-29T01:19:28;14.45;;;8.27;;
72478;SDS011;60658;52.246;5.258;2022-09-29T01:20:33;15.75;;;9.05;;
72478;SDS011;60658;52.246;5.258;2022-09-29T01:21:45;15.07;;;7.50;;
72478;SDS011;60658;52.246;5.258;2022-09-29T01:25:16;11.27;;;7.40;;
72478;SDS011;60658;52.246;5.258;2022-09-29T01:26:38;10.45;;;6.90;;
72478;SDS011;60658;52.246;5.258;2022-09-29T01:30:36;11.90;;;7.28;;
72478;SDS011;60658;52.246;5.258;2022-09-29T01:31:43;10.88;;;7.38;;
72478;SDS011;60658;52.246;5.258;2022-09-29T01:34:16;15.10;;;8.95;;
72478;SDS011;60658;52.246;5.258;2022-09-29T01:35:21;11.90;;;7.82;;
72478;SDS011;60658;52.246;5.258;2022-09-29T01:36:31;11.95;;;8.15;;
72478;SDS011;60658;52.246;5.258;2022-09-29T01:38:57;12.25;;;7.90;;
72478;SDS011;60658;52.246;5.258;2022-09-29T01:40:08;12.10;;;7.38;;
72478;SDS011;60658;52.246;5.258;2022-09-29T01:41:11;10.95;;;7.15;;
72478;SDS011;60658;52.246;5.258;2022-09-29T01:42:17;9.13;;;6.22;;
72478;SDS011;60658;52.246;5.258;2022-09-29T01:43:20;8.55;;;5.93;;
72478;SDS011;60658;52.246;5.258;2022-09-29T01:44:24;8.23;;;5.20;;
72478;SDS011;60658;52.246;5.258;2022-09-29T01:45:28;7.50;;;5.18;;
72478;SDS011;60658;52.246;5.258;2022-09-29T01:46:35;5.70;;;4.40;;
72478;SDS011;60658;52.246;5.258;2022-09-29T01:47:43;5.30;;;4.10;;
72478;SDS011;60658;52.246;5.258;2022-09-29T01:48:51;11.13;;;6.05;;
72478;SDS011;60658;52.246;5.258;2022-09-29T01:49:55;10.77;;;6.15;;
72478;SDS011;60658;52.246;5.258;2022-09-29T01:51:02;8.55;;;5.70;;
72478;SDS011;60658;52.246;5.258;2022-09-29T01:52:06;6.93;;;5.13;;
72478;SDS011;60658;52.246;5.258;2022-09-29T01:53:32;9.30;;;5.70;;
72478;SDS011;60658;52.246;5.258;2022-09-29T01:54:40;7.50;;;5.25;;
72478;SDS011;60658;52.246;5.258;2022-09-29T01:55:53;7.38;;;5.20;;
72478;SDS011;60658;52.246;5.258;2022-09-29T01:57:16;6.03;;;4.15;;
72478;SDS011;60658;52.246;5.258;2022-09-29T01:59:49;4.82;;;3.95;;
72478;SDS011;60658;52.246;5.258;2022-09-29T02:00:53;5.80;;;4.47;;
72478;SDS011;60658;52.246;5.258;2022-09-29T02:02:04;9.02;;;5.15;;
72478;SDS011;60658;52.246;5.258;2022-09-29T02:04:32;7.32;;;4.50;;
72478;SDS011;60658;52.246;5.258;2022-09-29T02:05:47;8.27;;;5.22;;
72478;SDS011;60658;52.246;5.258;2022-09-29T02:06:52;6.65;;;4.85;;
72478;SDS011;60658;52.246;5.258;2022-09-29T02:07:57;6.93;;;4.85;;
72478;SDS011;60658;52.246;5.258;2022-09-29T02:09:08;7.10;;;5.53;;
72478;SDS011;60658;52.246;5.258;2022-09-29T02:10:24;7.75;;;5.30;;
72478;SDS011;60658;52.246;5.258;2022-09-29T02:11:34;9.48;;;5.88;;
72478;SDS011;60658;52.246;5.258;2022-09-29T02:12:36;6.07;;;4.88;;
72478;SDS011;60658;52.246;5.258;2022-09-29T02:13:44;6.85;;;5.10;;
72478;SDS011;60658;52.246;5.258;2022-09-29T02:14:53;8.18;;;5.93;;
72478;SDS011;60658;52.246;5.258;2022-09-29T02:16:03;7.90;;;5.38;;
72478;SDS011;60658;52.246;5.258;2022-09-29T02:18:49;7.53;;;5.78;;
72478;SDS011;60658;52.246;5.258;2022-09-29T02:20:23;10.18;;;6.20;;
72478;SDS011;60658;52.246;5.258;2022-09-29T02:21:39;10.13;;;5.90;;
72478;SDS011;60658;52.246;5.258;2022-09-29T02:23:16;12.82;;;6.82;;
72478;SDS011;60658;52.246;5.258;2022-09-29T02:24:30;10.52;;;6.63;;
72478;SDS011;60658;52.246;5.258;2022-09-29T02:25:35;12.20;;;7.22;;
72478;SDS011;60658;52.246;5.258;2022-09-29T02:26:49;14.18;;;8.10;;
72478;SDS011;60658;52.246;5.258;2022-09-29T02:28:00;10.63;;;6.60;;
72478;SDS011;60658;52.246;5.258;2022-09-29T02:30:47;13.68;;;7.40;;
72478;SDS011;60658;52.246;5.258;2022-09-29T02:33:34;10.55;;;6.68;;
72478;SDS011;60658;52.246;5.258;2022-09-29T02:33:54;11.32;;;7.00;;
72478;SDS011;60658;52.246;5.258;2022-09-29T02:37:39;14.32;;;7.50;;
72478;SDS011;60658;52.246;5.258;2022-09-29T02:39:42;13.18;;;6.90;;
72478;SDS011;60658;52.246;5.258;2022-09-29T02:51:16;9.93;;;6.00;;
72478;SDS011;60658;52.246;5.258;2022-09-29T02:58:09;11.93;;;6.60;;
72478;SDS011;60658;52.246;5.258;2022-09-29T02:59:51;8.75;;;6.05;;
72478;SDS011;60658;52.246;5.258;2022-09-29T03:01:45;9.80;;;5.60;;
72478;SDS011;60658;52.246;5.258;2022-09-29T03:02:59;6.78;;;4.85;;
72478;SDS011;60658;52.246;5.258;2022-09-29T03:04:53;8.48;;;4.40;;
72478;SDS011;60658;52.246;5.258;2022-09-29T03:06:10;9.55;;;5.57;;
72478;SDS011;60658;52.246;5.258;2022-09-29T03:07:22;10.77;;;6.90;;
72478;SDS011;60658;52.246;5.258;2022-09-29T03:28:34;34.25;;;8.63;;
72478;SDS011;60658;52.246;5.258;2022-09-29T03:29:49;39.40;;;8.48;;
72478;SDS011;60658;52.246;5.258;2022-09-29T03:31:00;27.30;;;7.97;;
72478;SDS011;60658;52.246;5.258;2022-09-29T03:32:18;12.10;;;6.13;;
72478;SDS011;60658;52.246;5.258;2022-09-29T03:33:27;12.27;;;5.85;;
72478;SDS011;60658;52.246;5.258;2022-09-29T03:34:33;34.05;;;8.27;;
72478;SDS011;60658;52.246;5.258;2022-09-29T03:35:57;28.80;;;8.15;;
72478;SDS011;60658;52.246;5.258;2022-09-29T03:37:07;42.17;;;9.25;;
72478;SDS011;60658;52.246;5.258;2022-09-29T03:38:12;49.30;;;10.68;;
72478;SDS011;60658;52.246;5.258;2022-09-29T03:39:50;14.30;;;5.80;;
72478;SDS011;60658;52.246;5.258;2022-09-29T03:41:03;25.25;;;5.68;;
72478;SDS011;60658;52.246;5.258;2022-09-29T03:42:10;43.92;;;8.88;;
72478;SDS011;60658;52.246;5.258;2022-09-29T03:43:19;61.92;;;9.23;;
72478;SDS011;60658;52.246;5.258;2022-09-29T03:44:27;58.05;;;9.60;;
72478;SDS011;60658;52.246;5.258;2022-09-29T03:45:56;30.42;;;7.85;;
72478;SDS011;60658;52.246;5.258;2022-09-29T03:47:10;15.40;;;5.38;;
72478;SDS011;60658;52.246;5.258;2022-09-29T03:48:13;30.02;;;5.60;;
72478;SDS011;60658;52.246;5.258;2022-09-29T03:49:22;9.90;;;5.50;;
72478;SDS011;60658;52.246;5.258;2022-09-29T03:53:32;14.60;;;5.25;;
72478;SDS011;60658;52.246;5.258;2022-09-29T03:54:27;18.90;;;6.35;;
72478;SDS011;60658;52.246;5.258;2022-09-29T03:56:13;29.08;;;5.85;;
72478;SDS011;60658;52.246;5.258;2022-09-29T03:57:16;16.27;;;5.43;;
72478;SDS011;60658;52.246;5.258;2022-09-29T03:58:29;12.98;;;5.35;;
72478;SDS011;60658;52.246;5.258;2022-09-29T04:00:01;10.77;;;5.90;;
72478;SDS011;60658;52.246;5.258;2022-09-29T04:01:04;11.52;;;5.20;;
72478;SDS011;60658;52.246;5.258;2022-09-29T04:02:09;7.40;;;4.88;;
72478;SDS011;60658;52.246;5.258;2022-09-29T04:04:32;15.40;;;5.70;;
72478;SDS011;60658;52.246;5.258;2022-09-29T04:05:44;11.13;;;5.00;;
72478;SDS011;60658;52.246;5.258;2022-09-29T04:08:48;6.93;;;5.18;;
72478;SDS011;60658;52.246;5.258;2022-09-29T04:10:10;24.38;;;6.53;;
72478;SDS011;60658;52.246;5.258;2022-09-29T04:11:30;34.38;;;6.65;;
72478;SDS011;60658;52.246;5.258;2022-09-29T04:15:55;63.70;;;9.27;;
72478;SDS011;60658;52.246;5.258;2022-09-29T04:17:08;116.95;;;11.40;;
72478;SDS011;60658;52.246;5.258;2022-09-29T04:18:37;122.82;;;12.48;;
72478;SDS011;60658;52.246;5.258;2022-09-29T04:20:05;135.20;;;11.52;;
72478;SDS011;60658;52.246;5.258;2022-09-29T04:22:15;19.92;;;5.68;;
72478;SDS011;60658;52.246;5.258;2022-09-29T04:26:07;39.90;;;8.23;;
72478;SDS011;60658;52.246;5.258;2022-09-29T04:27:11;50.80;;;7.88;;
72478;SDS011;60658;52.246;5.258;2022-09-29T04:28:14;51.83;;;8.18;;
72478;SDS011;60658;52.246;5.258;2022-09-29T04:29:15;104.80;;;11.77;;
72478;SDS011;60658;52.246;5.258;2022-09-29T04:30:16;28.60;;;7.35;;
72478;SDS011;60658;52.246;5.258;2022-09-29T04:31:31;29.48;;;7.75;;
72478;SDS011;60658;52.246;5.258;2022-09-29T04:32:47;15.77;;;6.00;;
72478;SDS011;60658;52.246;5.258;2022-09-29T04:36:32;47.95;;;9.30;;
72478;SDS011;60658;52.246;5.258;2022-09-29T04:37:52;26.20;;;6.30;;
72478;SDS011;60658;52.246;5.258;2022-09-29T04:43:30;15.20;;;6.60;;
72478;SDS011;60658;52.246;5.258;2022-09-29T04:45:01;7.75;;;5.93;;
72478;SDS011;60658;52.246;5.258;2022-09-29T04:46:28;14.98;;;6.03;;
72478;SDS011;60658;52.246;5.258;2022-09-29T05:01:59;7.60;;;6.13;;
72478;SDS011;60658;52.246;5.258;2022-09-29T05:03:31;9.73;;;6.03;;
72478;SDS011;60658;52.246;5.258;2022-09-29T05:06:15;15.75;;;6.63;;
72478;SDS011;60658;52.246;5.258;2022-09-29T05:07:38;15.77;;;6.28;;
72478;SDS011;60658;52.246;5.258;2022-09-29T05:10:22;31.25;;;7.32;;
72478;SDS011;60658;52.246;5.258;2022-09-29T05:14:07;22.48;;;6.80;;
72478;SDS011;60658;52.246;5.258;2022-09-29T05:52:54;12.30;;;6.30;;
72478;SDS011;60658;52.246;5.258;2022-09-29T06:02:46;9.88;;;4.90;;
72478;SDS011;60658;52.246;5.258;2022-09-29T06:05:02;8.75;;;5.68;;
72478;SDS011;60658;52.246;5.258;2022-09-29T06:07:19;6.95;;;5.22;;
72478;SDS011;60658;52.246;5.258;2022-09-29T06:17:49;8.85;;;6.45;;
72478;SDS011;60658;52.246;5.258;2022-09-29T06:19:04;12.48;;;7.35;;
72478;SDS011;60658;52.246;5.258;2022-09-29T06:20:14;12.73;;;8.43;;
72478;SDS011;60658;52.246;5.258;2022-09-29T06:21:16;14.63;;;8.75;;
72478;SDS011;60658;52.246;5.258;2022-09-29T06:22:18;14.30;;;7.95;;
72478;SDS011;60658;52.246;5.258;2022-09-29T06:23:21;11.32;;;7.43;;
72478;SDS011;60658;52.246;5.258;2022-09-29T06:24:24;11.65;;;7.13;;
72478;SDS011;60658;52.246;5.258;2022-09-29T06:25:26;11.02;;;6.72;;
72478;SDS011;60658;52.246;5.258;2022-09-29T06:26:48;9.25;;;6.85;;
72478;SDS011;60658;52.246;5.258;2022-09-29T06:28:01;9.60;;;6.82;;
72478;SDS011;60658;52.246;5.258;2022-09-29T06:29:02;10.23;;;7.15;;
72478;SDS011;60658;52.246;5.258;2022-09-29T06:30:15;11.05;;;6.88;;
72478;SDS011;60658;52.246;5.258;2022-09-29T06:32:48;12.20;;;8.13;;
72478;SDS011;60658;52.246;5.258;2022-09-29T06:33:02;15.43;;;8.15;;
72478;SDS011;60658;52.246;5.258;2022-09-29T06:33:54;12.40;;;8.05;;
72478;SDS011;60658;52.246;5.258;2022-09-29T06:34:55;11.60;;;6.95;;
72478;SDS011;60658;52.246;5.258;2022-09-29T06:35:56;9.52;;;6.47;;
72478;SDS011;60658;52.246;5.258;2022-09-29T06:37:01;9.55;;;6.88;;
72478;SDS011;60658;52.246;5.258;2022-09-29T06:38:01;10.93;;;7.47;;
72478;SDS011;60658;52.246;5.258;2022-09-29T06:39:02;9.02;;;7.25;;
72478;SDS011;60658;52.246;5.258;2022-09-29T06:40:03;10.27;;;6.25;;
72478;SDS011;60658;52.246;5.258;2022-09-29T06:41:04;12.27;;;7.75;;
72478;SDS011;60658;52.246;5.258;2022-09-29T06:42:04;10.98;;;8.20;;
72478;SDS011;60658;52.246;5.258;2022-09-29T06:43:05;10.32;;;7.70;;
72478;SDS011;60658;52.246;5.258;2022-09-29T06:44:07;11.00;;;7.75;;
72478;SDS011;60658;52.246;5.258;2022-09-29T06:45:08;14.10;;;9.13;;
72478;SDS011;60658;52.246;5.258;2022-09-29T06:46:09;13.77;;;8.55;;
72478;SDS011;60658;52.246;5.258;2022-09-29T06:47:09;15.73;;;9.48;;
72478;SDS011;60658;52.246;5.258;2022-09-29T06:48:12;11.80;;;8.57;;
72478;SDS011;60658;52.246;5.258;2022-09-29T06:49:13;13.63;;;8.70;;
72478;SDS011;60658;52.246;5.258;2022-09-29T06:50:13;8.98;;;6.78;;
72478;SDS011;60658;52.246;5.258;2022-09-29T06:51:14;11.10;;;7.68;;
72478;SDS011;60658;52.246;5.258;2022-09-29T06:52:15;11.43;;;8.15;;
72478;SDS011;60658;52.246;5.258;2022-09-29T06:53:15;8.73;;;7.32;;
72478;SDS011;60658;52.246;5.258;2022-09-29T06:54:16;12.07;;;9.38;;
72478;SDS011;60658;52.246;5.258;2022-09-29T06:55:17;10.18;;;8.18;;
72478;SDS011;60658;52.246;5.258;2022-09-29T06:56:18;8.70;;;7.32;;
72478;SDS011;60658;52.246;5.258;2022-09-29T06:57:19;10.70;;;8.40;;
72478;SDS011;60658;52.246;5.258;2022-09-29T06:58:20;11.05;;;8.65;;
72478;SDS011;60658;52.246;5.258;2022-09-29T06:59:20;10.77;;;8.82;;
72478;SDS011;60658;52.246;5.258;2022-09-29T07:00:23;9.70;;;7.38;;
72478;SDS011;60658;52.246;5.258;2022-09-29T07:01:23;10.82;;;7.97;;
72478;SDS011;60658;52.246;5.258;2022-09-29T07:02:24;9.80;;;7.45;;
72478;SDS011;60658;52.246;5.258;2022-09-29T07:03:26;10.00;;;8.50;;
72478;SDS011;60658;52.246;5.258;2022-09-29T07:04:28;11.63;;;7.25;;
72478;SDS011;60658;52.246;5.258;2022-09-29T07:05:31;9.00;;;7.47;;
72478;SDS011;60658;52.246;5.258;2022-09-29T07:06:31;10.18;;;7.95;;
72478;SDS011;60658;52.246;5.258;2022-09-29T07:07:32;10.98;;;8.63;;
72478;SDS011;60658;52.246;5.258;2022-09-29T07:08:33;10.07;;;8.30;;
72478;SDS011;60658;52.246;5.258;2022-09-29T07:09:34;13.82;;;9.88;;
72478;SDS011;60658;52.246;5.258;2022-09-29T07:10:34;12.02;;;8.45;;
72478;SDS011;60658;52.246;5.258;2022-09-29T07:11:35;10.85;;;8.50;;
72478;SDS011;60658;52.246;5.258;2022-09-29T07:12:36;15.18;;;10.20;;
72478;SDS011;60658;52.246;5.258;2022-09-29T07:13:37;13.80;;;9.77;;
72478;SDS011;60658;52.246;5.258;2022-09-29T07:14:37;15.18;;;10.07;;
72478;SDS011;60658;52.246;5.258;2022-09-29T07:15:38;14.18;;;10.45;;
72478;SDS011;60658;52.246;5.258;2022-09-29T07:16:39;10.50;;;8.38;;
72478;SDS011;60658;52.246;5.258;2022-09-29T07:17:39;12.02;;;8.95;;
72478;SDS011;60658;52.246;5.258;2022-09-29T07:18:42;12.07;;;9.07;;
72478;SDS011;60658;52.246;5.258;2022-09-29T07:19:42;12.40;;;9.13;;
72478;SDS011;60658;52.246;5.258;2022-09-29T07:20:43;14.93;;;9.73;;
72478;SDS011;60658;52.246;5.258;2022-09-29T07:21:44;13.73;;;9.52;;
72478;SDS011;60658;52.246;5.258;2022-09-29T07:22:45;15.20;;;10.65;;
72478;SDS011;60658;52.246;5.258;2022-09-29T07:23:46;19.33;;;11.57;;
72478;SDS011;60658;52.246;5.258;2022-09-29T07:24:47;17.73;;;11.32;;
72478;SDS011;60658;52.246;5.258;2022-09-29T07:25:47;16.77;;;10.77;;
72478;SDS011;60658;52.246;5.258;2022-09-29T07:26:48;14.98;;;10.73;;
72478;SDS011;60658;52.246;5.258;2022-09-29T07:27:48;19.52;;;11.77;;
72478;SDS011;60658;52.246;5.258;2022-09-29T07:28:49;16.33;;;11.65;;
72478;SDS011;60658;52.246;5.258;2022-09-29T07:29:50;16.75;;;11.15;;
72478;SDS011;60658;52.246;5.258;2022-09-29T07:30:57;23.20;;;13.13;;
72478;SDS011;60658;52.246;5.258;2022-09-29T07:31:58;17.95;;;12.02;;
72478;SDS011;60658;52.246;5.258;2022-09-29T07:32:58;14.52;;;10.68;;
72478;SDS011;60658;52.246;5.258;2022-09-29T07:34:00;16.65;;;12.20;;
72478;SDS011;60658;52.246;5.258;2022-09-29T07:35:01;18.65;;;12.63;;
72478;SDS011;60658;52.246;5.258;2022-09-29T07:36:02;19.35;;;11.05;;
72478;SDS011;60658;52.246;5.258;2022-09-29T07:37:02;18.95;;;11.98;;
72478;SDS011;60658;52.246;5.258;2022-09-29T07:38:03;16.27;;;11.85;;
72478;SDS011;60658;52.246;5.258;2022-09-29T07:39:04;18.13;;;12.38;;
72478;SDS011;60658;52.246;5.258;2022-09-29T07:40:05;20.38;;;12.50;;
72478;SDS011;60658;52.246;5.258;2022-09-29T07:41:06;16.98;;;12.00;;
72478;SDS011;60658;52.246;5.258;2022-09-29T07:42:07;13.00;;;9.77;;
72478;SDS011;60658;52.246;5.258;2022-09-29T07:43:08;17.88;;;13.52;;
72478;SDS011;60658;52.246;5.258;2022-09-29T07:44:09;20.63;;;12.82;;
72478;SDS011;60658;52.246;5.258;2022-09-29T07:45:09;16.67;;;12.45;;
72478;SDS011;60658;52.246;5.258;2022-09-29T07:46:10;18.30;;;12.88;;
72478;SDS011;60658;52.246;5.258;2022-09-29T07:47:10;19.25;;;13.10;;
72478;SDS011;60658;52.246;5.258;2022-09-29T07:48:11;17.98;;;12.80;;
72478;SDS011;60658;52.246;5.258;2022-09-29T07:49:16;19.52;;;14.68;;
72478;SDS011;60658;52.246;5.258;2022-09-29T07:50:16;15.77;;;12.60;;
72478;SDS011;60658;52.246;5.258;2022-09-29T07:51:18;17.63;;;12.07;;
72478;SDS011;60658;52.246;5.258;2022-09-29T07:52:19;20.17;;;13.35;;
72478;SDS011;60658;52.246;5.258;2022-09-29T07:53:19;14.88;;;11.80;;
72478;SDS011;60658;52.246;5.258;2022-09-29T07:54:20;17.60;;;14.05;;
72478;SDS011;60658;52.246;5.258;2022-09-29T07:55:21;14.68;;;11.40;;
72478;SDS011;60658;52.246;5.258;2022-09-29T07:56:21;16.90;;;12.95;;
72478;SDS011;60658;52.246;5.258;2022-09-29T07:57:22;18.73;;;13.73;;
72478;SDS011;60658;52.246;5.258;2022-09-29T07:58:23;17.20;;;13.00;;
72478;SDS011;60658;52.246;5.258;2022-09-29T07:59:23;18.05;;;13.45;;
72478;SDS011;60658;52.246;5.258;2022-09-29T08:00:24;20.25;;;14.02;;
72478;SDS011;60658;52.246;5.258;2022-09-29T08:01:25;20.00;;;15.27;;
72478;SDS011;60658;52.246;5.258;2022-09-29T08:02:25;18.80;;;14.32;;
72478;SDS011;60658;52.246;5.258;2022-09-29T08:03:26;18.98;;;14.30;;
72478;SDS011;60658;52.246;5.258;2022-09-29T08:04:28;19.17;;;13.63;;
72478;SDS011;60658;52.246;5.258;2022-09-29T08:05:29;18.95;;;13.38;;
72478;SDS011;60658;52.246;5.258;2022-09-29T08:06:30;16.90;;;13.07;;
72478;SDS011;60658;52.246;5.258;2022-09-29T08:07:30;17.20;;;12.85;;
72478;SDS011;60658;52.246;5.258;2022-09-29T08:08:31;18.85;;;13.73;;
72478;SDS011;60658;52.246;5.258;2022-09-29T08:09:33;18.95;;;14.50;;
72478;SDS011;60658;52.246;5.258;2022-09-29T08:10:34;17.77;;;13.10;;
72478;SDS011;60658;52.246;5.258;2022-09-29T08:11:36;16.58;;;13.30;;
72478;SDS011;60658;52.246;5.258;2022-09-29T08:12:37;19.27;;;13.82;;
72478;SDS011;60658;52.246;5.258;2022-09-29T08:13:37;18.63;;;14.50;;
72478;SDS011;60658;52.246;5.258;2022-09-29T08:14:38;18.80;;;14.85;;
72478;SDS011;60658;52.246;5.258;2022-09-29T08:15:39;20.25;;;16.02;;
72478;SDS011;60658;52.246;5.258;2022-09-29T08:16:39;18.90;;;14.45;;
72478;SDS011;60658;52.246;5.258;2022-09-29T08:17:40;21.42;;;15.45;;
72478;SDS011;60658;52.246;5.258;2022-09-29T08:18:40;19.75;;;15.55;;
72478;SDS011;60658;52.246;5.258;2022-09-29T08:19:42;20.15;;;15.63;;
72478;SDS011;60658;52.246;5.258;2022-09-29T08:20:46;23.02;;;16.65;;
72478;SDS011;60658;52.246;5.258;2022-09-29T08:21:46;19.13;;;14.70;;
72478;SDS011;60658;52.246;5.258;2022-09-29T08:22:47;16.85;;;13.43;;
72478;SDS011;60658;52.246;5.258;2022-09-29T08:23:48;17.77;;;13.98;;
72478;SDS011;60658;52.246;5.258;2022-09-29T08:24:57;17.83;;;14.15;;
72478;SDS011;60658;52.246;5.258;2022-09-29T08:26:02;20.75;;;15.10;;
72478;SDS011;60658;52.246;5.258;2022-09-29T08:27:14;23.65;;;17.05;;
72478;SDS011;60658;52.246;5.258;2022-09-29T08:28:23;20.65;;;16.58;;
72478;SDS011;60658;52.246;5.258;2022-09-29T08:29:24;22.63;;;15.27;;
72478;SDS011;60658;52.246;5.258;2022-09-29T08:30:39;19.80;;;14.52;;
72478;SDS011;60658;52.246;5.258;2022-09-29T08:31:40;20.83;;;16.30;;
72478;SDS011;60658;52.246;5.258;2022-09-29T08:32:55;20.95;;;15.55;;
72478;SDS011;60658;52.246;5.258;2022-09-29T08:33:57;18.52;;;14.18;;
72478;SDS011;60658;52.246;5.258;2022-09-29T08:38:54;20.08;;;14.75;;
72478;SDS011;60658;52.246;5.258;2022-09-29T08:39:55;17.40;;;14.30;;
72478;SDS011;60658;52.246;5.258;2022-09-29T08:40:56;20.27;;;15.55;;
72478;SDS011;60658;52.246;5.258;2022-09-29T08:44:42;18.88;;;14.63;;
72478;SDS011;60658;52.246;5.258;2022-09-29T08:46:11;17.10;;;13.82;;
72478;SDS011;60658;52.246;5.258;2022-09-29T08:47:24;21.00;;;14.98;;
72478;SDS011;60658;52.246;5.258;2022-09-29T08:48:28;17.42;;;14.45;;
72478;SDS011;60658;52.246;5.258;2022-09-29T08:51:14;20.52;;;15.57;;
72478;SDS011;60658;52.246;5.258;2022-09-29T08:52:28;21.67;;;15.98;;
72478;SDS011;60658;52.246;5.258;2022-09-29T08:53:40;20.52;;;16.38;;
72478;SDS011;60658;52.246;5.258;2022-09-29T09:03:56;19.65;;;15.57;;
72478;SDS011;60658;52.246;5.258;2022-09-29T09:48:55;18.27;;;15.07;;
72478;SDS011;60658;52.246;5.258;2022-09-29T09:50:11;17.95;;;13.13;;
72478;SDS011;60658;52.246;5.258;2022-09-29T09:51:29;16.17;;;11.35;;
72478;SDS011;60658;52.246;5.258;2022-09-29T09:52:40;15.63;;;10.52;;
72478;SDS011;60658;52.246;5.258;2022-09-29T09:53:51;15.07;;;11.25;;
72478;SDS011;60658;52.246;5.258;2022-09-29T09:55:00;15.85;;;12.30;;
72478;SDS011;60658;52.246;5.258;2022-09-29T09:56:41;15.15;;;11.35;;
72478;SDS011;60658;52.246;5.258;2022-09-29T09:58:15;17.63;;;12.43;;
72478;SDS011;60658;52.246;5.258;2022-09-29T10:00:32;16.52;;;12.23;;
72478;SDS011;60658;52.246;5.258;2022-09-29T10:01:45;17.70;;;11.68;;
72478;SDS011;60658;52.246;5.258;2022-09-29T10:07:05;15.82;;;11.93;;
72478;SDS011;60658;52.246;5.258;2022-09-29T10:11:50;16.23;;;11.20;;
72478;SDS011;60658;52.246;5.258;2022-09-29T10:14:25;15.85;;;12.68;;
72478;SDS011;60658;52.246;5.258;2022-09-29T10:16:09;16.80;;;12.13;;
72478;SDS011;60658;52.246;5.258;2022-09-29T10:17:35;18.02;;;12.90;;
72478;SDS011;60658;52.246;5.258;2022-09-29T10:18:43;17.15;;;12.40;;
72478;SDS011;60658;52.246;5.258;2022-09-29T10:21:03;17.25;;;13.20;;
72478;SDS011;60658;52.246;5.258;2022-09-29T10:21:33;16.85;;;13.10;;
72478;SDS011;60658;52.246;5.258;2022-09-29T10:22:42;15.30;;;10.90;;
72478;SDS011;60658;52.246;5.258;2022-09-29T10:23:48;13.82;;;11.20;;